sensor_id;sensor_type;location;lat;lon;timestamp;P1;durP1;ratioP1;P2;durP2;ratioP2
45408;SDS011;31162;51.076;3.784;2024-01-06T00:01:01;7.60;;;3.50;;
45408;SDS011;31162;51.076;3.784;2024-01-06T00:03:27;11.07;;;3.47;;
45408;SDS011;31162;51.076;3.784;2024-01-06T00:05:52;11.63;;;3.47;;
45408;SDS011;31162;51.076;3.784;2024-01-06T00:08:18;8.50;;;3.20;;
45408;SDS011;31162;51.076;3.784;2024-01-06T00:10:43;7.28;;;2.55;;
45408;SDS011;31162;51.076;3.784;2024-01-06T00:13:10;7.40;;;3.78;;
45408;SDS011;31162;51.076;3.784;2024-01-06T00:15:35;9.25;;;2.83;;
45408;SDS011;31162;51.076;3.784;2024-01-06T00:18:01;10.32;;;2.80;;
45408;SDS011;31162;51.076;3.784;2024-01-06T00:20:27;10.15;;;2.40;;
45408;SDS011;31162;51.076;3.784;2024-01-06T00:22:53;6.25;;;2.97;;
45408;SDS011;31162;51.076;3.784;2024-01-06T00:25:18;11.13;;;4.43;;
45408;SDS011;31162;51.076;3.784;2024-01-06T00:27:44;11.32;;;3.17;;
45408;SDS011;31162;51.076;3.784;2024-01-06T00:30:10;10.82;;;3.17;;
45408;SDS011;31162;51.076;3.784;2024-01-06T00:32:36;8.52;;;3.15;;
45408;SDS011;31162;51.076;3.784;2024-01-06T00:35:01;7.88;;;4.07;;
45408;SDS011;31162;51.076;3.784;2024-01-06T00:37:27;7.03;;;2.70;;
45408;SDS011;31162;51.076;3.784;2024-01-06T00:39:53;7.68;;;2.47;;
45408;SDS011;31162;51.076;3.784;2024-01-06T00:42:19;8.48;;;3.30;;
45408;SDS011;31162;51.076;3.784;2024-01-06T00:44:44;8.60;;;2.97;;
45408;SDS011;31162;51.076;3.784;2024-01-06T00:47:10;5.88;;;2.72;;
45408;SDS011;31162;51.076;3.784;2024-01-06T00:49:36;11.02;;;5.40;;
45408;SDS011;31162;51.076;3.784;2024-01-06T00:52:02;9.23;;;2.78;;
45408;SDS011;31162;51.076;3.784;2024-01-06T00:54:28;6.72;;;2.85;;
45408;SDS011;31162;51.076;3.784;2024-01-06T00:56:54;8.80;;;4.60;;
45408;SDS011;31162;51.076;3.784;2024-01-06T00:59:19;6.93;;;2.90;;
45408;SDS011;31162;51.076;3.784;2024-01-06T01:01:45;14.20;;;5.20;;
45408;SDS011;31162;51.076;3.784;2024-01-06T01:04:10;9.32;;;6.10;;
45408;SDS011;31162;51.076;3.784;2024-01-06T01:06:36;12.52;;;6.90;;
45408;SDS011;31162;51.076;3.784;2024-01-06T01:09:02;10.45;;;4.53;;
45408;SDS011;31162;51.076;3.784;2024-01-06T01:11:29;10.00;;;5.43;;
45408;SDS011;31162;51.076;3.784;2024-01-06T01:13:55;9.43;;;5.18;;
45408;SDS011;31162;51.076;3.784;2024-01-06T01:16:20;7.93;;;4.03;;
45408;SDS011;31162;51.076;3.784;2024-01-06T01:18:46;11.13;;;5.50;;
45408;SDS011;31162;51.076;3.784;2024-01-06T01:21:12;8.48;;;4.90;;
45408;SDS011;31162;51.076;3.784;2024-01-06T01:23:37;14.43;;;6.57;;
45408;SDS011;31162;51.076;3.784;2024-01-06T01:26:03;12.75;;;7.57;;
45408;SDS011;31162;51.076;3.784;2024-01-06T01:28:29;12.93;;;6.70;;
45408;SDS011;31162;51.076;3.784;2024-01-06T01:30:54;15.20;;;8.95;;
45408;SDS011;31162;51.076;3.784;2024-01-06T01:33:20;12.02;;;7.60;;
45408;SDS011;31162;51.076;3.784;2024-01-06T01:35:45;11.90;;;5.82;;
45408;SDS011;31162;51.076;3.784;2024-01-06T01:38:11;11.98;;;6.57;;
45408;SDS011;31162;51.076;3.784;2024-01-06T01:40:37;13.20;;;7.30;;
45408;SDS011;31162;51.076;3.784;2024-01-06T01:43:02;14.82;;;8.50;;
45408;SDS011;31162;51.076;3.784;2024-01-06T01:45:28;11.95;;;6.57;;
45408;SDS011;31162;51.076;3.784;2024-01-06T01:47:54;8.88;;;6.53;;
45408;SDS011;31162;51.076;3.784;2024-01-06T01:50:19;12.70;;;6.80;;
45408;SDS011;31162;51.076;3.784;2024-01-06T01:52:47;14.18;;;7.95;;
45408;SDS011;31162;51.076;3.784;2024-01-06T01:55:13;15.63;;;9.20;;
45408;SDS011;31162;51.076;3.784;2024-01-06T01:57:39;13.40;;;8.35;;
45408;SDS011;31162;51.076;3.784;2024-01-06T02:00:05;11.85;;;9.10;;
45408;SDS011;31162;51.076;3.784;2024-01-06T02:02:32;11.70;;;7.95;;
45408;SDS011;31162;51.076;3.784;2024-01-06T02:04:58;16.23;;;9.43;;
45408;SDS011;31162;51.076;3.784;2024-01-06T02:07:24;9.63;;;5.68;;
45408;SDS011;31162;51.076;3.784;2024-01-06T02:09:50;12.45;;;6.15;;
45408;SDS011;31162;51.076;3.784;2024-01-06T02:12:16;8.85;;;4.05;;
45408;SDS011;31162;51.076;3.784;2024-01-06T02:14:41;8.45;;;3.80;;
45408;SDS011;31162;51.076;3.784;2024-01-06T02:17:08;10.20;;;6.38;;
45408;SDS011;31162;51.076;3.784;2024-01-06T02:19:33;16.63;;;10.88;;
45408;SDS011;31162;51.076;3.784;2024-01-06T02:22:00;12.52;;;8.55;;
45408;SDS011;31162;51.076;3.784;2024-01-06T02:24:25;12.73;;;9.18;;
45408;SDS011;31162;51.076;3.784;2024-01-06T02:26:51;15.10;;;9.57;;
45408;SDS011;31162;51.076;3.784;2024-01-06T02:29:17;15.05;;;8.60;;
45408;SDS011;31162;51.076;3.784;2024-01-06T02:31:42;13.48;;;8.48;;
45408;SDS011;31162;51.076;3.784;2024-01-06T02:34:08;8.90;;;6.32;;
45408;SDS011;31162;51.076;3.784;2024-01-06T02:36:34;10.73;;;4.22;;
45408;SDS011;31162;51.076;3.784;2024-01-06T02:39:00;7.78;;;2.78;;
45408;SDS011;31162;51.076;3.784;2024-01-06T02:41:26;5.32;;;2.20;;
45408;SDS011;31162;51.076;3.784;2024-01-06T02:43:52;3.33;;;2.22;;
45408;SDS011;31162;51.076;3.784;2024-01-06T02:46:19;5.75;;;2.80;;
45408;SDS011;31162;51.076;3.784;2024-01-06T02:48:44;7.80;;;2.38;;
45408;SDS011;31162;51.076;3.784;2024-01-06T02:51:10;4.95;;;2.28;;
45408;SDS011;31162;51.076;3.784;2024-01-06T02:53:37;3.85;;;2.35;;
45408;SDS011;31162;51.076;3.784;2024-01-06T02:56:03;6.78;;;2.67;;
45408;SDS011;31162;51.076;3.784;2024-01-06T02:58:29;8.90;;;2.92;;
45408;SDS011;31162;51.076;3.784;2024-01-06T03:00:55;9.57;;;2.80;;
45408;SDS011;31162;51.076;3.784;2024-01-06T03:03:20;5.72;;;2.70;;
45408;SDS011;31162;51.076;3.784;2024-01-06T03:05:46;6.07;;;2.40;;
45408;SDS011;31162;51.076;3.784;2024-01-06T03:08:14;4.25;;;3.17;;
45408;SDS011;31162;51.076;3.784;2024-01-06T03:10:40;5.45;;;2.75;;
45408;SDS011;31162;51.076;3.784;2024-01-06T03:13:06;5.80;;;2.85;;
45408;SDS011;31162;51.076;3.784;2024-01-06T03:15:31;6.45;;;3.08;;
45408;SDS011;31162;51.076;3.784;2024-01-06T03:17:57;7.05;;;2.90;;
45408;SDS011;31162;51.076;3.784;2024-01-06T03:20:23;5.22;;;3.00;;
45408;SDS011;31162;51.076;3.784;2024-01-06T03:22:48;4.10;;;2.38;;
45408;SDS011;31162;51.076;3.784;2024-01-06T03:25:14;7.30;;;3.28;;
45408;SDS011;31162;51.076;3.784;2024-01-06T03:27:40;7.20;;;3.47;;
45408;SDS011;31162;51.076;3.784;2024-01-06T03:30:06;7.68;;;3.00;;
45408;SDS011;31162;51.076;3.784;2024-01-06T03:32:32;7.53;;;3.80;;
45408;SDS011;31162;51.076;3.784;2024-01-06T03:34:57;6.88;;;3.75;;
45408;SDS011;31162;51.076;3.784;2024-01-06T03:37:23;5.72;;;4.15;;
45408;SDS011;31162;51.076;3.784;2024-01-06T03:39:49;8.25;;;4.20;;
45408;SDS011;31162;51.076;3.784;2024-01-06T03:42:15;7.45;;;4.65;;
45408;SDS011;31162;51.076;3.784;2024-01-06T03:44:40;8.13;;;4.43;;
45408;SDS011;31162;51.076;3.784;2024-01-06T03:47:06;5.65;;;4.35;;
45408;SDS011;31162;51.076;3.784;2024-01-06T03:49:31;8.45;;;4.32;;
45408;SDS011;31162;51.076;3.784;2024-01-06T03:51:57;6.70;;;3.92;;
45408;SDS011;31162;51.076;3.784;2024-01-06T03:54:23;9.30;;;4.47;;
45408;SDS011;31162;51.076;3.784;2024-01-06T03:56:49;8.75;;;4.30;;
45408;SDS011;31162;51.076;3.784;2024-01-06T03:59:15;5.10;;;3.20;;
45408;SDS011;31162;51.076;3.784;2024-01-06T04:01:40;6.03;;;3.35;;
45408;SDS011;31162;51.076;3.784;2024-01-06T04:04:06;5.75;;;3.47;;
45408;SDS011;31162;51.076;3.784;2024-01-06T04:06:32;7.30;;;3.70;;
45408;SDS011;31162;51.076;3.784;2024-01-06T04:08:58;6.85;;;3.70;;
45408;SDS011;31162;51.076;3.784;2024-01-06T04:11:23;5.30;;;3.55;;
45408;SDS011;31162;51.076;3.784;2024-01-06T04:13:49;6.03;;;3.47;;
45408;SDS011;31162;51.076;3.784;2024-01-06T04:16:15;5.65;;;3.28;;
45408;SDS011;31162;51.076;3.784;2024-01-06T04:18:40;5.88;;;3.97;;
45408;SDS011;31162;51.076;3.784;2024-01-06T04:21:06;7.57;;;4.38;;
45408;SDS011;31162;51.076;3.784;2024-01-06T04:23:31;7.63;;;5.47;;
45408;SDS011;31162;51.076;3.784;2024-01-06T04:25:57;10.70;;;7.20;;
45408;SDS011;31162;51.076;3.784;2024-01-06T04:28:23;11.02;;;8.30;;
45408;SDS011;31162;51.076;3.784;2024-01-06T04:30:49;10.60;;;8.07;;
45408;SDS011;31162;51.076;3.784;2024-01-06T04:33:15;10.02;;;8.88;;
45408;SDS011;31162;51.076;3.784;2024-01-06T04:35:41;9.00;;;8.10;;
45408;SDS011;31162;51.076;3.784;2024-01-06T04:38:06;12.57;;;8.63;;
45408;SDS011;31162;51.076;3.784;2024-01-06T04:40:32;9.75;;;8.00;;
45408;SDS011;31162;51.076;3.784;2024-01-06T04:42:58;11.50;;;7.72;;
45408;SDS011;31162;51.076;3.784;2024-01-06T04:45:23;11.85;;;7.03;;
45408;SDS011;31162;51.076;3.784;2024-01-06T04:47:49;8.93;;;6.88;;
45408;SDS011;31162;51.076;3.784;2024-01-06T04:50:16;10.07;;;6.63;;
45408;SDS011;31162;51.076;3.784;2024-01-06T04:52:42;9.50;;;6.10;;
45408;SDS011;31162;51.076;3.784;2024-01-06T04:55:08;10.02;;;6.88;;
45408;SDS011;31162;51.076;3.784;2024-01-06T04:57:34;9.23;;;6.47;;
45408;SDS011;31162;51.076;3.784;2024-01-06T05:00:00;13.18;;;7.22;;
45408;SDS011;31162;51.076;3.784;2024-01-06T05:02:26;17.92;;;10.88;;
45408;SDS011;31162;51.076;3.784;2024-01-06T05:04:52;10.80;;;7.18;;
45408;SDS011;31162;51.076;3.784;2024-01-06T05:07:17;12.75;;;7.53;;
45408;SDS011;31162;51.076;3.784;2024-01-06T05:09:43;11.38;;;7.55;;
45408;SDS011;31162;51.076;3.784;2024-01-06T05:12:09;11.25;;;7.93;;
45408;SDS011;31162;51.076;3.784;2024-01-06T05:14:34;14.88;;;10.90;;
45408;SDS011;31162;51.076;3.784;2024-01-06T05:17:00;18.35;;;13.52;;
45408;SDS011;31162;51.076;3.784;2024-01-06T05:19:25;15.52;;;10.60;;
45408;SDS011;31162;51.076;3.784;2024-01-06T05:21:51;16.02;;;9.23;;
45408;SDS011;31162;51.076;3.784;2024-01-06T05:24:17;14.27;;;9.13;;
45408;SDS011;31162;51.076;3.784;2024-01-06T05:26:44;15.45;;;8.25;;
45408;SDS011;31162;51.076;3.784;2024-01-06T05:29:10;13.40;;;9.88;;
45408;SDS011;31162;51.076;3.784;2024-01-06T05:31:35;12.90;;;8.25;;
45408;SDS011;31162;51.076;3.784;2024-01-06T05:34:01;11.95;;;8.40;;
45408;SDS011;31162;51.076;3.784;2024-01-06T05:36:27;16.80;;;7.72;;
45408;SDS011;31162;51.076;3.784;2024-01-06T05:38:53;14.18;;;8.52;;
45408;SDS011;31162;51.076;3.784;2024-01-06T05:41:19;18.05;;;8.50;;
45408;SDS011;31162;51.076;3.784;2024-01-06T05:43:45;14.13;;;9.13;;
45408;SDS011;31162;51.076;3.784;2024-01-06T05:46:10;12.32;;;8.52;;
45408;SDS011;31162;51.076;3.784;2024-01-06T05:48:36;15.80;;;8.68;;
45408;SDS011;31162;51.076;3.784;2024-01-06T05:51:05;15.02;;;9.18;;
45408;SDS011;31162;51.076;3.784;2024-01-06T05:53:31;12.55;;;8.95;;
45408;SDS011;31162;51.076;3.784;2024-01-06T05:55:57;23.42;;;13.77;;
45408;SDS011;31162;51.076;3.784;2024-01-06T05:58:23;17.75;;;10.57;;
45408;SDS011;31162;51.076;3.784;2024-01-06T06:00:48;13.25;;;8.15;;
45408;SDS011;31162;51.076;3.784;2024-01-06T06:03:14;13.40;;;8.50;;
45408;SDS011;31162;51.076;3.784;2024-01-06T06:05:40;22.73;;;12.15;;
45408;SDS011;31162;51.076;3.784;2024-01-06T06:08:05;16.20;;;9.60;;
45408;SDS011;31162;51.076;3.784;2024-01-06T06:10:31;14.65;;;10.30;;
45408;SDS011;31162;51.076;3.784;2024-01-06T06:13:06;18.77;;;11.77;;
45408;SDS011;31162;51.076;3.784;2024-01-06T06:15:34;17.50;;;11.52;;
45408;SDS011;31162;51.076;3.784;2024-01-06T06:18:00;16.38;;;11.35;;
45408;SDS011;31162;51.076;3.784;2024-01-06T06:20:26;18.13;;;10.45;;
45408;SDS011;31162;51.076;3.784;2024-01-06T06:22:51;15.73;;;11.45;;
45408;SDS011;31162;51.076;3.784;2024-01-06T06:25:17;17.20;;;12.60;;
45408;SDS011;31162;51.076;3.784;2024-01-06T06:27:42;15.65;;;13.35;;
45408;SDS011;31162;51.076;3.784;2024-01-06T06:30:08;16.90;;;12.43;;
45408;SDS011;31162;51.076;3.784;2024-01-06T06:32:34;21.23;;;14.18;;
45408;SDS011;31162;51.076;3.784;2024-01-06T06:35:00;18.15;;;13.93;;
45408;SDS011;31162;51.076;3.784;2024-01-06T06:37:26;18.70;;;13.82;;
45408;SDS011;31162;51.076;3.784;2024-01-06T06:39:52;19.15;;;11.27;;
45408;SDS011;31162;51.076;3.784;2024-01-06T06:42:18;19.83;;;13.75;;
45408;SDS011;31162;51.076;3.784;2024-01-06T06:44:43;15.57;;;11.18;;
45408;SDS011;31162;51.076;3.784;2024-01-06T06:47:09;21.00;;;11.35;;
45408;SDS011;31162;51.076;3.784;2024-01-06T06:49:35;15.05;;;8.80;;
45408;SDS011;31162;51.076;3.784;2024-01-06T06:52:00;17.85;;;8.30;;
45408;SDS011;31162;51.076;3.784;2024-01-06T06:54:27;15.68;;;9.23;;
45408;SDS011;31162;51.076;3.784;2024-01-06T06:56:53;16.67;;;9.85;;
45408;SDS011;31162;51.076;3.784;2024-01-06T06:59:19;15.13;;;8.98;;
45408;SDS011;31162;51.076;3.784;2024-01-06T07:01:45;14.27;;;9.90;;
45408;SDS011;31162;51.076;3.784;2024-01-06T07:04:11;12.63;;;9.85;;
45408;SDS011;31162;51.076;3.784;2024-01-06T07:06:37;19.27;;;10.52;;
45408;SDS011;31162;51.076;3.784;2024-01-06T07:09:02;14.80;;;10.40;;
45408;SDS011;31162;51.076;3.784;2024-01-06T07:11:29;15.93;;;9.63;;
45408;SDS011;31162;51.076;3.784;2024-01-06T07:13:55;15.57;;;10.02;;
45408;SDS011;31162;51.076;3.784;2024-01-06T07:16:21;18.95;;;10.52;;
45408;SDS011;31162;51.076;3.784;2024-01-06T07:18:47;31.42;;;23.35;;
45408;SDS011;31162;51.076;3.784;2024-01-06T07:21:12;17.63;;;11.43;;
45408;SDS011;31162;51.076;3.784;2024-01-06T07:23:38;18.00;;;10.57;;
45408;SDS011;31162;51.076;3.784;2024-01-06T07:26:04;13.90;;;10.23;;
45408;SDS011;31162;51.076;3.784;2024-01-06T07:28:30;20.00;;;11.20;;
45408;SDS011;31162;51.076;3.784;2024-01-06T07:30:56;13.60;;;10.00;;
45408;SDS011;31162;51.076;3.784;2024-01-06T07:33:21;18.90;;;10.95;;
45408;SDS011;31162;51.076;3.784;2024-01-06T07:35:47;18.15;;;12.00;;
45408;SDS011;31162;51.076;3.784;2024-01-06T07:38:13;17.17;;;11.07;;
45408;SDS011;31162;51.076;3.784;2024-01-06T07:40:39;17.55;;;10.88;;
45408;SDS011;31162;51.076;3.784;2024-01-06T07:43:11;16.40;;;11.10;;
45408;SDS011;31162;51.076;3.784;2024-01-06T07:45:36;17.45;;;11.30;;
45408;SDS011;31162;51.076;3.784;2024-01-06T07:48:03;16.55;;;11.13;;
45408;SDS011;31162;51.076;3.784;2024-01-06T07:50:29;20.27;;;11.82;;
45408;SDS011;31162;51.076;3.784;2024-01-06T07:52:54;20.85;;;12.57;;
45408;SDS011;31162;51.076;3.784;2024-01-06T07:55:20;23.42;;;12.50;;
45408;SDS011;31162;51.076;3.784;2024-01-06T07:57:46;19.33;;;13.48;;
45408;SDS011;31162;51.076;3.784;2024-01-06T08:00:11;16.27;;;12.80;;
45408;SDS011;31162;51.076;3.784;2024-01-06T08:02:41;15.90;;;11.35;;
45408;SDS011;31162;51.076;3.784;2024-01-06T08:05:07;17.42;;;11.75;;
45408;SDS011;31162;51.076;3.784;2024-01-06T08:07:33;18.48;;;11.50;;
45408;SDS011;31162;51.076;3.784;2024-01-06T08:09:59;16.30;;;11.18;;
45408;SDS011;31162;51.076;3.784;2024-01-06T08:12:25;23.75;;;16.52;;
45408;SDS011;31162;51.076;3.784;2024-01-06T08:14:51;17.30;;;9.95;;
45408;SDS011;31162;51.076;3.784;2024-01-06T08:17:16;14.55;;;8.27;;
45408;SDS011;31162;51.076;3.784;2024-01-06T08:19:42;11.73;;;7.90;;
45408;SDS011;31162;51.076;3.784;2024-01-06T08:22:08;17.25;;;9.48;;
45408;SDS011;31162;51.076;3.784;2024-01-06T08:24:33;14.23;;;12.13;;
45408;SDS011;31162;51.076;3.784;2024-01-06T08:26:59;13.40;;;9.95;;
45408;SDS011;31162;51.076;3.784;2024-01-06T08:29:25;19.70;;;10.32;;
45408;SDS011;31162;51.076;3.784;2024-01-06T08:31:50;19.13;;;10.55;;
45408;SDS011;31162;51.076;3.784;2024-01-06T08:34:17;15.73;;;10.05;;
45408;SDS011;31162;51.076;3.784;2024-01-06T08:36:43;18.10;;;10.40;;
45408;SDS011;31162;51.076;3.784;2024-01-06T08:39:09;17.45;;;9.73;;
45408;SDS011;31162;51.076;3.784;2024-01-06T08:41:36;17.33;;;10.43;;
45408;SDS011;31162;51.076;3.784;2024-01-06T08:44:02;13.73;;;7.40;;
45408;SDS011;31162;51.076;3.784;2024-01-06T08:46:28;13.73;;;7.43;;
45408;SDS011;31162;51.076;3.784;2024-01-06T08:48:53;11.95;;;6.97;;
45408;SDS011;31162;51.076;3.784;2024-01-06T08:51:19;10.68;;;6.78;;
45408;SDS011;31162;51.076;3.784;2024-01-06T08:53:45;10.65;;;6.80;;
45408;SDS011;31162;51.076;3.784;2024-01-06T08:56:11;13.55;;;8.05;;
45408;SDS011;31162;51.076;3.784;2024-01-06T08:58:37;12.07;;;8.27;;
45408;SDS011;31162;51.076;3.784;2024-01-06T09:01:02;9.93;;;7.07;;
45408;SDS011;31162;51.076;3.784;2024-01-06T09:03:28;6.57;;;4.88;;
45408;SDS011;31162;51.076;3.784;2024-01-06T09:05:55;5.60;;;4.18;;
45408;SDS011;31162;51.076;3.784;2024-01-06T09:08:21;5.65;;;4.28;;
45408;SDS011;31162;51.076;3.784;2024-01-06T09:10:48;8.88;;;5.63;;
45408;SDS011;31162;51.076;3.784;2024-01-06T09:13:16;7.28;;;5.32;;
45408;SDS011;31162;51.076;3.784;2024-01-06T09:15:42;12.45;;;5.50;;
45408;SDS011;31162;51.076;3.784;2024-01-06T09:18:08;10.32;;;7.53;;
45408;SDS011;31162;51.076;3.784;2024-01-06T09:20:34;11.45;;;8.27;;
45408;SDS011;31162;51.076;3.784;2024-01-06T09:23:00;12.15;;;9.50;;
45408;SDS011;31162;51.076;3.784;2024-01-06T09:25:25;13.05;;;9.52;;
45408;SDS011;31162;51.076;3.784;2024-01-06T09:27:51;12.65;;;9.70;;
45408;SDS011;31162;51.076;3.784;2024-01-06T09:30:18;12.13;;;9.05;;
45408;SDS011;31162;51.076;3.784;2024-01-06T09:32:44;16.48;;;12.65;;
45408;SDS011;31162;51.076;3.784;2024-01-06T09:35:09;12.82;;;9.70;;
45408;SDS011;31162;51.076;3.784;2024-01-06T09:37:35;11.52;;;9.90;;
45408;SDS011;31162;51.076;3.784;2024-01-06T09:40:02;13.35;;;10.30;;
45408;SDS011;31162;51.076;3.784;2024-01-06T09:42:28;11.77;;;9.98;;
45408;SDS011;31162;51.076;3.784;2024-01-06T09:44:54;14.13;;;10.32;;
45408;SDS011;31162;51.076;3.784;2024-01-06T09:47:19;13.43;;;10.70;;
45408;SDS011;31162;51.076;3.784;2024-01-06T09:49:49;15.68;;;11.65;;
45408;SDS011;31162;51.076;3.784;2024-01-06T09:52:15;16.33;;;12.05;;
45408;SDS011;31162;51.076;3.784;2024-01-06T09:54:46;16.02;;;12.02;;
45408;SDS011;31162;51.076;3.784;2024-01-06T09:57:18;14.18;;;12.35;;
45408;SDS011;31162;51.076;3.784;2024-01-06T09:59:45;17.58;;;13.48;;
45408;SDS011;31162;51.076;3.784;2024-01-06T10:02:12;14.07;;;10.95;;
45408;SDS011;31162;51.076;3.784;2024-01-06T10:04:40;14.98;;;11.52;;
45408;SDS011;31162;51.076;3.784;2024-01-06T10:07:07;14.02;;;12.15;;
45408;SDS011;31162;51.076;3.784;2024-01-06T10:09:33;14.77;;;12.38;;
45408;SDS011;31162;51.076;3.784;2024-01-06T10:11:58;16.70;;;12.40;;
45408;SDS011;31162;51.076;3.784;2024-01-06T10:14:24;14.13;;;12.15;;
45408;SDS011;31162;51.076;3.784;2024-01-06T10:16:53;14.60;;;11.35;;
45408;SDS011;31162;51.076;3.784;2024-01-06T10:19:19;12.82;;;10.95;;
45408;SDS011;31162;51.076;3.784;2024-01-06T10:21:45;16.77;;;11.80;;
45408;SDS011;31162;51.076;3.784;2024-01-06T10:24:11;35.83;;;28.85;;
45408;SDS011;31162;51.076;3.784;2024-01-06T10:26:36;19.83;;;14.25;;
45408;SDS011;31162;51.076;3.784;2024-01-06T10:29:03;20.80;;;14.43;;
45408;SDS011;31162;51.076;3.784;2024-01-06T10:31:29;14.18;;;9.77;;
45408;SDS011;31162;51.076;3.784;2024-01-06T10:33:55;10.52;;;7.57;;
45408;SDS011;31162;51.076;3.784;2024-01-06T10:36:24;9.73;;;6.63;;
45408;SDS011;31162;51.076;3.784;2024-01-06T10:38:52;10.77;;;7.50;;
45408;SDS011;31162;51.076;3.784;2024-01-06T10:41:17;13.23;;;8.23;;
45408;SDS011;31162;51.076;3.784;2024-01-06T10:43:45;12.13;;;7.72;;
45408;SDS011;31162;51.076;3.784;2024-01-06T10:46:13;10.23;;;6.57;;
45408;SDS011;31162;51.076;3.784;2024-01-06T10:48:41;10.00;;;6.25;;
45408;SDS011;31162;51.076;3.784;2024-01-06T10:51:11;8.38;;;4.97;;
45408;SDS011;31162;51.076;3.784;2024-01-06T10:53:39;6.80;;;4.23;;
45408;SDS011;31162;51.076;3.784;2024-01-06T10:56:06;8.30;;;7.50;;
45408;SDS011;31162;51.076;3.784;2024-01-06T10:58:36;7.15;;;5.88;;
45408;SDS011;31162;51.076;3.784;2024-01-06T11:01:08;6.90;;;4.72;;
45408;SDS011;31162;51.076;3.784;2024-01-06T11:03:37;10.45;;;5.75;;
45408;SDS011;31162;51.076;3.784;2024-01-06T11:06:06;6.57;;;5.53;;
45408;SDS011;31162;51.076;3.784;2024-01-06T11:08:36;9.68;;;6.05;;
45408;SDS011;31162;51.076;3.784;2024-01-06T11:11:19;6.88;;;4.65;;
45408;SDS011;31162;51.076;3.784;2024-01-06T11:13:45;7.75;;;5.53;;
45408;SDS011;31162;51.076;3.784;2024-01-06T11:16:32;9.50;;;7.43;;
45408;SDS011;31162;51.076;3.784;2024-01-06T11:18:59;5.28;;;4.75;;
45408;SDS011;31162;51.076;3.784;2024-01-06T11:21:25;8.50;;;5.25;;
45408;SDS011;31162;51.076;3.784;2024-01-06T11:26:32;6.32;;;5.03;;
45408;SDS011;31162;51.076;3.784;2024-01-06T11:28:58;11.35;;;6.63;;
45408;SDS011;31162;51.076;3.784;2024-01-06T11:31:32;12.18;;;8.23;;
45408;SDS011;31162;51.076;3.784;2024-01-06T11:33:58;10.07;;;8.85;;
45408;SDS011;31162;51.076;3.784;2024-01-06T11:36:43;10.70;;;9.00;;
45408;SDS011;31162;51.076;3.784;2024-01-06T11:39:33;11.05;;;8.60;;
45408;SDS011;31162;51.076;3.784;2024-01-06T11:42:03;10.05;;;6.28;;
45408;SDS011;31162;51.076;3.784;2024-01-06T11:44:33;8.50;;;4.68;;
45408;SDS011;31162;51.076;3.784;2024-01-06T11:46:59;8.75;;;4.85;;
45408;SDS011;31162;51.076;3.784;2024-01-06T11:49:28;13.63;;;6.07;;
45408;SDS011;31162;51.076;3.784;2024-01-06T11:51:55;9.30;;;8.18;;
45408;SDS011;31162;51.076;3.784;2024-01-06T11:54:24;11.40;;;9.70;;
45408;SDS011;31162;51.076;3.784;2024-01-06T11:56:50;13.10;;;10.48;;
45408;SDS011;31162;51.076;3.784;2024-01-06T11:59:19;12.07;;;9.27;;
45408;SDS011;31162;51.076;3.784;2024-01-06T12:01:45;11.98;;;10.02;;
45408;SDS011;31162;51.076;3.784;2024-01-06T12:04:13;12.10;;;9.93;;
45408;SDS011;31162;51.076;3.784;2024-01-06T12:06:40;12.70;;;9.82;;
45408;SDS011;31162;51.076;3.784;2024-01-06T12:09:07;13.98;;;9.52;;
45408;SDS011;31162;51.076;3.784;2024-01-06T12:11:34;12.77;;;9.45;;
45408;SDS011;31162;51.076;3.784;2024-01-06T12:14:00;8.65;;;7.18;;
45408;SDS011;31162;51.076;3.784;2024-01-06T12:16:25;7.55;;;5.95;;
45408;SDS011;31162;51.076;3.784;2024-01-06T12:18:55;6.90;;;5.38;;
45408;SDS011;31162;51.076;3.784;2024-01-06T12:21:25;9.25;;;6.53;;
45408;SDS011;31162;51.076;3.784;2024-01-06T12:23:51;9.98;;;7.25;;
45408;SDS011;31162;51.076;3.784;2024-01-06T12:26:17;12.45;;;9.30;;
45408;SDS011;31162;51.076;3.784;2024-01-06T12:28:46;12.18;;;7.57;;
45408;SDS011;31162;51.076;3.784;2024-01-06T12:31:14;10.43;;;6.32;;
45408;SDS011;31162;51.076;3.784;2024-01-06T12:33:40;8.98;;;6.68;;
45408;SDS011;31162;51.076;3.784;2024-01-06T12:36:06;11.57;;;7.20;;
45408;SDS011;31162;51.076;3.784;2024-01-06T12:38:34;8.23;;;6.18;;
45408;SDS011;31162;51.076;3.784;2024-01-06T12:41:03;7.65;;;6.25;;
45408;SDS011;31162;51.076;3.784;2024-01-06T12:43:29;8.05;;;6.18;;
45408;SDS011;31162;51.076;3.784;2024-01-06T12:45:55;13.50;;;6.50;;
45408;SDS011;31162;51.076;3.784;2024-01-06T12:48:22;6.93;;;3.70;;
45408;SDS011;31162;51.076;3.784;2024-01-06T12:50:48;7.05;;;3.90;;
45408;SDS011;31162;51.076;3.784;2024-01-06T12:53:14;7.72;;;4.32;;
45408;SDS011;31162;51.076;3.784;2024-01-06T12:55:42;4.60;;;3.03;;
45408;SDS011;31162;51.076;3.784;2024-01-06T12:58:08;6.30;;;4.15;;
45408;SDS011;31162;51.076;3.784;2024-01-06T13:00:34;7.22;;;3.53;;
45408;SDS011;31162;51.076;3.784;2024-01-06T13:02:59;8.40;;;4.10;;
45408;SDS011;31162;51.076;3.784;2024-01-06T13:05:25;7.95;;;5.55;;
45408;SDS011;31162;51.076;3.784;2024-01-06T13:07:51;9.13;;;4.93;;
45408;SDS011;31162;51.076;3.784;2024-01-06T13:10:17;7.40;;;4.72;;
45408;SDS011;31162;51.076;3.784;2024-01-06T13:12:42;7.22;;;5.05;;
45408;SDS011;31162;51.076;3.784;2024-01-06T13:15:08;10.88;;;5.82;;
45408;SDS011;31162;51.076;3.784;2024-01-06T13:17:37;8.23;;;4.80;;
45408;SDS011;31162;51.076;3.784;2024-01-06T13:20:03;10.30;;;5.28;;
45408;SDS011;31162;51.076;3.784;2024-01-06T13:22:30;6.72;;;4.22;;
45408;SDS011;31162;51.076;3.784;2024-01-06T13:24:55;4.03;;;3.63;;
45408;SDS011;31162;51.076;3.784;2024-01-06T13:27:21;4.45;;;3.22;;
45408;SDS011;31162;51.076;3.784;2024-01-06T13:29:47;6.35;;;3.17;;
45408;SDS011;31162;51.076;3.784;2024-01-06T13:32:13;4.70;;;3.15;;
45408;SDS011;31162;51.076;3.784;2024-01-06T13:34:40;4.47;;;3.08;;
45408;SDS011;31162;51.076;3.784;2024-01-06T13:37:07;3.90;;;3.13;;
45408;SDS011;31162;51.076;3.784;2024-01-06T13:39:32;3.90;;;3.10;;
45408;SDS011;31162;51.076;3.784;2024-01-06T13:41:58;6.30;;;3.42;;
45408;SDS011;31162;51.076;3.784;2024-01-06T13:44:24;6.70;;;3.28;;
45408;SDS011;31162;51.076;3.784;2024-01-06T13:46:50;5.15;;;3.28;;
45408;SDS011;31162;51.076;3.784;2024-01-06T13:49:16;5.88;;;3.58;;
45408;SDS011;31162;51.076;3.784;2024-01-06T13:51:43;6.68;;;4.18;;
45408;SDS011;31162;51.076;3.784;2024-01-06T13:54:09;4.53;;;3.63;;
45408;SDS011;31162;51.076;3.784;2024-01-06T13:56:35;4.68;;;3.55;;
45408;SDS011;31162;51.076;3.784;2024-01-06T13:59:02;6.53;;;3.92;;
45408;SDS011;31162;51.076;3.784;2024-01-06T14:01:28;9.48;;;3.88;;
45408;SDS011;31162;51.076;3.784;2024-01-06T14:03:54;8.52;;;4.97;;
45408;SDS011;31162;51.076;3.784;2024-01-06T14:06:26;7.28;;;3.80;;
45408;SDS011;31162;51.076;3.784;2024-01-06T14:08:55;4.53;;;2.90;;
45408;SDS011;31162;51.076;3.784;2024-01-06T14:11:21;8.07;;;5.40;;
45408;SDS011;31162;51.076;3.784;2024-01-06T14:13:47;5.32;;;3.47;;
45408;SDS011;31162;51.076;3.784;2024-01-06T14:16:14;5.97;;;3.10;;
45408;SDS011;31162;51.076;3.784;2024-01-06T14:18:40;5.57;;;3.22;;
45408;SDS011;31162;51.076;3.784;2024-01-06T14:21:07;4.35;;;3.22;;
45408;SDS011;31162;51.076;3.784;2024-01-06T14:23:36;6.18;;;3.22;;
45408;SDS011;31162;51.076;3.784;2024-01-06T14:26:02;4.18;;;3.22;;
45408;SDS011;31162;51.076;3.784;2024-01-06T14:28:28;6.75;;;3.30;;
45408;SDS011;31162;51.076;3.784;2024-01-06T14:30:55;4.93;;;3.45;;
45408;SDS011;31162;51.076;3.784;2024-01-06T14:33:20;16.88;;;13.30;;